createdAt,value
2017-09-22T00:01:56.950Z,11.40
2017-09-22T00:04:24.519Z,11.40
2017-09-22T00:06:52.878Z,11.40
2017-09-22T00:09:20.470Z,11.30
2017-09-22T00:11:48.831Z,11.20
2017-09-22T00:14:16.420Z,11.20
2017-09-22T00:16:44.018Z,11.30
2017-09-22T00:19:11.638Z,11.20
2017-09-22T00:21:39.235Z,11.10
2017-09-22T00:24:06.855Z,11.10
2017-09-22T00:26:35.198Z,11.10
2017-09-22T00:29:02.790Z,11.10
2017-09-22T00:31:31.183Z,11.00
2017-09-22T00:33:58.854Z,11.00
2017-09-22T00:36:26.446Z,11.00
2017-09-22T00:38:54.059Z,11.00
2017-09-22T00:41:22.402Z,10.90
2017-09-22T00:43:50.006Z,10.90
2017-09-22T00:46:17.610Z,10.80
2017-09-22T00:48:45.202Z,10.80
2017-09-22T00:51:12.850Z,10.90
2017-09-22T00:53:40.474Z,10.90
2017-09-22T00:56:08.058Z,10.80
2017-09-22T00:58:35.650Z,10.80
2017-09-22T01:01:03.219Z,10.80
2017-09-22T01:03:31.599Z,10.70
2017-09-22T01:05:59.970Z,10.70
2017-09-22T01:08:27.586Z,10.60
2017-09-22T01:10:55.353Z,10.70
2017-09-22T01:13:22.946Z,10.60
2017-09-22T01:15:50.754Z,10.60
2017-09-22T01:18:19.375Z,10.60
2017-09-22T01:20:46.941Z,10.60
2017-09-22T01:23:15.487Z,10.60
2017-09-22T01:25:43.136Z,10.60
2017-09-22T01:28:11.522Z,10.50
2017-09-22T01:30:39.521Z,10.50
2017-09-22T01:33:07.090Z,10.50
2017-09-22T01:35:34.654Z,10.50
2017-09-22T01:38:02.380Z,10.40
2017-09-22T01:40:30.680Z,10.40
2017-09-22T01:42:58.544Z,10.40
2017-09-22T01:45:26.128Z,10.40
2017-09-22T01:47:54.021Z,10.40
2017-09-22T01:50:21.616Z,10.40
2017-09-22T01:52:50.129Z,10.40
2017-09-22T01:55:18.568Z,10.40
2017-09-22T01:57:47.196Z,10.40
2017-09-22T02:00:14.761Z,10.40
2017-09-22T02:02:42.377Z,10.40
2017-09-22T02:05:10.897Z,10.30
2017-09-22T02:07:38.478Z,10.40
2017-09-22T02:10:06.062Z,10.40
2017-09-22T02:12:33.654Z,10.40
2017-09-22T02:15:01.242Z,10.30
2017-09-22T02:17:28.834Z,10.30
2017-09-22T02:19:56.414Z,10.30
2017-09-22T02:22:24.006Z,10.30
2017-09-22T02:24:51.606Z,10.20
2017-09-22T02:27:19.194Z,10.20
2017-09-22T02:29:46.777Z,10.10
2017-09-22T02:32:15.102Z,10.10
2017-09-22T02:34:43.007Z,10.00
2017-09-22T02:37:10.580Z,10.10
2017-09-22T02:39:38.929Z,10.10
2017-09-22T02:42:06.963Z,10.10
2017-09-22T02:44:34.551Z,10.00
2017-09-22T02:47:02.128Z,10.00
2017-09-22T02:49:29.705Z,10.00
2017-09-22T02:51:57.538Z,10.00
2017-09-22T02:54:25.112Z,10.00
2017-09-22T02:56:53.042Z,10.00
2017-09-22T02:59:20.812Z,10.00
2017-09-22T03:01:48.382Z,10.00
2017-09-22T03:04:15.968Z,10.00
2017-09-22T03:06:43.866Z,10.00
2017-09-22T03:09:12.186Z,9.90
2017-09-22T03:11:39.967Z,9.90
2017-09-22T03:14:07.540Z,9.90
2017-09-22T03:16:35.302Z,9.90
2017-09-22T03:19:02.970Z,9.90
2017-09-22T03:21:30.525Z,9.90
2017-09-22T03:23:58.093Z,9.80
2017-09-22T03:26:25.692Z,9.80
2017-09-22T03:28:54.049Z,9.80
2017-09-22T03:31:21.830Z,9.80
2017-09-22T03:33:50.169Z,9.80
2017-09-22T03:36:17.758Z,9.80
2017-09-22T03:38:46.101Z,9.80
2017-09-22T03:41:13.686Z,9.80
2017-09-22T03:43:41.435Z,9.80
2017-09-22T03:46:09.369Z,9.80
2017-09-22T03:48:37.246Z,9.80
2017-09-22T03:51:04.841Z,9.80
2017-09-22T03:53:32.623Z,9.70
2017-09-22T03:56:00.219Z,9.70
2017-09-22T03:58:27.807Z,9.70
2017-09-22T04:00:57.418Z,9.70
2017-09-22T04:03:25.014Z,9.70
2017-09-22T04:05:52.714Z,9.80
2017-09-22T04:08:20.314Z,9.80
2017-09-22T04:10:47.878Z,9.70
2017-09-22T04:13:15.634Z,9.70
2017-09-22T04:15:43.994Z,9.70
2017-09-22T04:18:11.573Z,9.70
2017-09-22T04:20:39.145Z,9.70
2017-09-22T04:23:06.902Z,9.70
2017-09-22T04:25:34.491Z,9.70
2017-09-22T04:28:02.069Z,9.80
2017-09-22T04:30:30.429Z,9.80
2017-09-22T04:32:58.042Z,9.70
2017-09-22T04:35:25.613Z,9.80
2017-09-22T04:37:53.176Z,9.80
2017-09-22T04:40:21.127Z,9.80
2017-09-22T04:42:48.702Z,9.70
2017-09-22T04:45:16.658Z,9.70
2017-09-22T04:47:44.222Z,9.70
2017-09-22T04:50:11.803Z,9.70
2017-09-22T04:52:39.386Z,9.70
2017-09-22T04:55:07.019Z,9.70
2017-09-22T04:57:34.561Z,9.60
2017-09-22T05:00:02.171Z,9.60
2017-09-22T05:02:29.766Z,9.70
2017-09-22T05:04:58.274Z,9.60
2017-09-22T05:07:25.858Z,9.60
2017-09-22T05:09:53.469Z,9.70
2017-09-22T05:12:21.861Z,9.70
2017-09-22T05:14:49.434Z,9.60
2017-09-22T05:17:17.001Z,9.70
2017-09-22T05:19:44.591Z,9.70
2017-09-22T05:22:12.151Z,9.70
2017-09-22T05:24:39.766Z,9.70
2017-09-22T05:27:07.379Z,9.80
2017-09-22T05:29:34.984Z,9.80
2017-09-22T05:32:02.578Z,9.80
2017-09-22T05:34:30.141Z,9.90
2017-09-22T05:36:57.739Z,9.90
2017-09-22T05:39:25.319Z,9.90
2017-09-22T05:41:54.554Z,10.00
2017-09-22T05:44:22.142Z,10.00
2017-09-22T05:46:49.878Z,10.10
2017-09-22T05:49:17.495Z,10.10
2017-09-22T05:51:45.067Z,10.20
2017-09-22T05:54:13.726Z,10.40
2017-09-22T05:56:41.298Z,10.40
2017-09-22T05:59:09.830Z,10.60
2017-09-22T06:01:37.674Z,10.60
2017-09-22T06:04:05.243Z,10.70
2017-09-22T06:06:33.059Z,10.80
2017-09-22T06:09:00.662Z,10.90
2017-09-22T06:11:28.426Z,11.00
2017-09-22T06:13:56.289Z,11.10
2017-09-22T06:16:24.633Z,11.30
2017-09-22T06:18:52.222Z,11.30
2017-09-22T06:21:20.576Z,11.50
2017-09-22T06:23:48.322Z,11.40
2017-09-22T06:26:15.923Z,11.50
2017-09-22T06:28:44.545Z,11.70
2017-09-22T06:31:12.411Z,11.70
2017-09-22T06:33:40.001Z,11.90
2017-09-22T06:36:07.742Z,12.20
2017-09-22T06:38:35.343Z,12.60
2017-09-22T06:41:03.279Z,13.00
2017-09-22T06:43:32.302Z,14.40
2017-09-22T06:46:00.165Z,14.40
2017-09-22T06:48:27.779Z,15.30
2017-09-22T06:50:55.369Z,16.50
2017-09-22T06:53:22.981Z,17.50
2017-09-22T06:55:51.317Z,18.40
2017-09-22T06:58:18.879Z,18.10
2017-09-22T07:00:46.736Z,19.00
2017-09-22T07:03:14.344Z,19.30
2017-09-22T07:05:41.926Z,19.60
2017-09-22T07:08:09.508Z,19.80
2017-09-22T07:10:37.083Z,20.10
2017-09-22T07:13:04.653Z,20.20
2017-09-22T07:15:33.025Z,20.10
2017-09-22T07:18:01.486Z,19.90
2017-09-22T07:20:29.057Z,20.40
2017-09-22T07:22:56.747Z,21.20
2017-09-22T07:25:24.335Z,22.70
2017-09-22T07:27:52.888Z,24.80
2017-09-22T07:30:21.427Z,24.80
2017-09-22T07:32:49.001Z,25.30
2017-09-22T07:35:16.594Z,25.40
2017-09-22T07:37:44.180Z,25.60
2017-09-22T07:40:11.766Z,26.30
2017-09-22T07:42:39.354Z,26.90
2017-09-22T07:45:06.967Z,27.30
2017-09-22T07:47:35.302Z,27.40
2017-09-22T07:50:02.978Z,27.40
2017-09-22T07:52:30.571Z,27.20
2017-09-22T07:55:00.055Z,27.30
2017-09-22T07:57:27.625Z,27.30
2017-09-22T07:59:57.043Z,27.70
2017-09-22T08:02:25.413Z,27.80
2017-09-22T08:04:52.989Z,27.70
2017-09-22T08:07:21.363Z,26.10
2017-09-22T08:09:49.730Z,25.50
2017-09-22T08:12:17.314Z,25.50
2017-09-22T08:14:45.658Z,25.70
2017-09-22T08:17:13.433Z,25.70
2017-09-22T08:19:41.044Z,26.20
2017-09-22T08:22:08.638Z,26.40
2017-09-22T08:24:36.249Z,25.70
2017-09-22T08:27:03.841Z,25.00
2017-09-22T08:29:31.421Z,25.00
2017-09-22T08:31:59.027Z,25.20
2017-09-22T08:34:27.383Z,25.40
2017-09-22T08:36:54.945Z,25.40
2017-09-22T08:39:22.537Z,25.70
2017-09-22T08:41:50.105Z,26.70
2017-09-22T08:44:18.575Z,27.10
2017-09-22T08:46:48.637Z,27.40
2017-09-22T08:49:16.229Z,27.40
2017-09-22T08:51:43.814Z,26.50
2017-09-22T08:54:12.202Z,25.70
2017-09-22T08:56:39.982Z,25.70
2017-09-22T08:59:07.591Z,25.50
2017-09-22T09:01:35.186Z,24.90
2017-09-22T09:04:04.233Z,24.50
2017-09-22T09:06:31.818Z,24.50
2017-09-22T09:08:59.397Z,24.40
2017-09-22T09:11:28.682Z,25.00
2017-09-22T09:13:56.745Z,25.00
2017-09-22T09:16:24.341Z,25.30
2017-09-22T09:31:51.945Z,25.00
2017-09-22T09:34:19.539Z,26.00
2017-09-22T09:36:47.120Z,26.30
2017-09-22T09:39:14.714Z,26.40
2017-09-22T09:41:42.329Z,26.50
2017-09-22T09:44:10.966Z,26.50
2017-09-22T09:46:38.547Z,26.50
2017-09-22T09:49:06.164Z,26.50
2017-09-22T09:51:33.779Z,26.60
2017-09-22T09:54:01.366Z,26.70
2017-09-22T09:56:29.719Z,26.40
2017-09-22T09:58:57.302Z,26.40
2017-09-22T10:01:25.691Z,25.60
2017-09-22T10:03:53.274Z,25.70
2017-09-22T10:06:20.902Z,25.90
2017-09-22T10:08:49.253Z,27.50
2017-09-22T10:11:16.826Z,27.50
2017-09-22T10:13:44.426Z,28.20
2017-09-22T10:16:11.994Z,28.30
2017-09-22T10:18:39.600Z,28.40
2017-09-22T10:21:07.223Z,28.60
2017-09-22T10:23:34.824Z,28.60
2017-09-22T10:26:02.412Z,28.80
2017-09-22T10:28:30.781Z,28.70
2017-09-22T10:30:59.170Z,28.70
2017-09-22T10:33:27.539Z,28.70
2017-09-22T10:35:55.154Z,28.70
2017-09-22T10:38:23.492Z,28.90
2017-09-22T10:40:51.839Z,28.30
2017-09-22T10:43:19.448Z,28.30
2017-09-22T10:45:47.119Z,28.20
2017-09-22T10:48:14.696Z,28.40
2017-09-22T10:50:42.434Z,28.40
2017-09-22T10:53:10.767Z,28.30
2017-09-22T10:55:38.359Z,28.30
2017-09-22T10:58:06.713Z,26.90
2017-09-22T11:00:34.317Z,26.90
2017-09-22T11:03:02.730Z,26.60
2017-09-22T11:05:30.312Z,26.50
2017-09-22T11:07:57.908Z,26.00
2017-09-22T11:10:26.439Z,25.00
2017-09-22T11:12:54.023Z,25.00
2017-09-22T11:15:21.582Z,24.60
2017-09-22T11:17:49.199Z,24.30
2017-09-22T11:20:23.116Z,24.20
2017-09-22T11:22:53.992Z,24.00
2017-09-22T11:25:21.714Z,23.90
2017-09-22T11:27:49.287Z,24.00
2017-09-22T11:30:16.865Z,23.70
2017-09-22T11:32:44.828Z,24.00
2017-09-22T11:35:12.461Z,24.30
2017-09-22T11:37:40.980Z,24.90
2017-09-22T11:40:08.565Z,25.10
2017-09-22T11:42:36.161Z,25.60
2017-09-22T11:45:03.734Z,26.00
2017-09-22T11:47:31.325Z,25.90
2017-09-22T11:49:58.899Z,25.30
2017-09-22T11:52:27.379Z,24.50
2017-09-22T11:54:55.011Z,24.40
2017-09-22T11:57:22.629Z,24.00
2017-09-22T11:59:51.030Z,23.80
2017-09-22T12:02:18.649Z,23.80
2017-09-22T12:04:46.251Z,23.70
2017-09-22T12:07:13.919Z,23.60
2017-09-22T12:09:41.519Z,23.60
2017-09-22T12:12:09.164Z,23.80
2017-09-22T12:14:36.775Z,23.70
2017-09-22T12:17:04.342Z,23.90
2017-09-22T12:19:32.985Z,23.70
2017-09-22T12:22:00.809Z,23.70
2017-09-22T12:24:28.394Z,23.90
2017-09-22T12:26:55.971Z,24.10
2017-09-22T12:29:23.905Z,24.20
2017-09-22T12:31:52.237Z,23.70
2017-09-22T12:34:19.815Z,23.70
2017-09-22T12:36:47.410Z,23.80
2017-09-22T12:39:15.003Z,23.50
2017-09-22T12:41:42.706Z,23.30
2017-09-22T12:44:10.352Z,23.10
2017-09-22T12:46:37.938Z,23.10
2017-09-22T12:49:06.289Z,23.00
2017-09-22T12:51:34.218Z,23.00
2017-09-22T12:54:01.792Z,22.90
2017-09-22T12:56:29.385Z,22.80
2017-09-22T12:58:56.963Z,23.00
2017-09-22T13:01:24.516Z,23.20
2017-09-22T13:03:52.119Z,23.30
2017-09-22T13:06:19.720Z,23.30
2017-09-22T13:08:47.287Z,23.30
2017-09-22T13:11:14.878Z,23.20
2017-09-22T13:13:43.299Z,22.80
2017-09-22T13:16:11.818Z,22.80
2017-09-22T13:18:39.414Z,22.80
2017-09-22T13:21:06.999Z,22.80
2017-09-22T13:23:34.596Z,22.70
2017-09-22T13:26:02.182Z,22.80
2017-09-22T13:28:30.645Z,22.80
2017-09-22T13:30:58.246Z,22.70
2017-09-22T13:33:25.875Z,22.70
2017-09-22T13:35:53.470Z,22.90
2017-09-22T13:38:21.054Z,22.80
2017-09-22T13:40:48.709Z,22.40
2017-09-22T13:43:17.043Z,21.70
2017-09-22T13:45:44.601Z,21.70
2017-09-22T13:48:12.187Z,21.60
2017-09-22T13:50:39.828Z,21.60
2017-09-22T13:53:07.422Z,21.50
2017-09-22T13:55:35.010Z,21.50
2017-09-22T13:58:02.616Z,21.50
2017-09-22T14:00:30.965Z,21.80
2017-09-22T14:02:58.578Z,21.80
2017-09-22T14:05:26.164Z,22.00
2017-09-22T14:07:53.730Z,22.10
2017-09-22T14:10:21.544Z,22.10
2017-09-22T14:12:49.122Z,22.00
2017-09-22T14:15:17.474Z,21.40
2017-09-22T14:17:45.063Z,21.40
2017-09-22T14:20:12.822Z,21.20
2017-09-22T14:22:41.161Z,20.80
2017-09-22T14:25:09.343Z,20.80
2017-09-22T14:27:36.923Z,20.80
2017-09-22T14:30:05.275Z,20.80
2017-09-22T14:32:32.888Z,20.80
2017-09-22T14:35:01.238Z,20.70
2017-09-22T14:37:28.946Z,20.60
2017-09-22T14:39:56.527Z,20.70
2017-09-22T14:42:24.142Z,20.60
2017-09-22T14:44:52.549Z,20.60
2017-09-22T14:47:20.909Z,20.60
2017-09-22T14:49:48.498Z,20.50
2017-09-22T14:52:16.086Z,20.50
2017-09-22T14:54:43.678Z,20.60
2017-09-22T14:57:12.046Z,20.80
2017-09-22T14:59:39.620Z,20.80
2017-09-22T15:02:08.018Z,20.90
2017-09-22T15:04:35.831Z,21.00
2017-09-22T15:07:03.401Z,21.10
2017-09-22T15:09:31.029Z,21.20
2017-09-22T15:11:58.614Z,21.30
2017-09-22T15:14:26.273Z,21.40
2017-09-22T15:16:53.883Z,21.40
2017-09-22T15:19:22.198Z,21.30
2017-09-22T15:21:49.800Z,21.40
2017-09-22T15:24:17.371Z,21.30
2017-09-22T15:26:45.727Z,21.30
2017-09-22T15:29:13.287Z,21.30
2017-09-22T15:31:40.885Z,21.20
2017-09-22T15:34:09.500Z,21.00
2017-09-22T15:36:37.366Z,21.00
2017-09-22T15:39:04.962Z,21.00
2017-09-22T15:41:32.567Z,21.00
2017-09-22T15:44:00.939Z,20.90
2017-09-22T15:46:29.270Z,21.00
2017-09-22T15:48:56.868Z,20.90
2017-09-22T15:51:25.214Z,20.80
2017-09-22T15:53:52.793Z,20.80
2017-09-22T15:56:20.376Z,20.70
2017-09-22T15:58:48.735Z,20.60
2017-09-22T16:01:16.344Z,20.50
2017-09-22T16:03:43.929Z,20.40
2017-09-22T16:06:11.517Z,20.30
2017-09-22T16:08:39.155Z,20.20
2017-09-22T16:11:06.762Z,20.10
2017-09-22T16:13:35.397Z,20.00
2017-09-22T16:16:03.250Z,20.00
2017-09-22T16:18:31.130Z,20.00
2017-09-22T16:20:58.734Z,20.00
2017-09-22T16:23:27.086Z,19.80
2017-09-22T16:25:54.987Z,19.80
2017-09-22T16:28:23.343Z,19.70
2017-09-22T16:30:51.107Z,19.70
2017-09-22T16:33:18.721Z,19.70
2017-09-22T16:35:46.324Z,19.60
2017-09-22T16:38:13.902Z,19.60
2017-09-22T16:40:41.496Z,19.50
2017-09-22T16:43:09.122Z,19.40
2017-09-22T16:45:36.941Z,19.30
2017-09-22T16:48:04.542Z,19.20
2017-09-22T16:50:32.132Z,19.10
2017-09-22T16:53:00.451Z,18.80
2017-09-22T16:55:28.080Z,18.80
2017-09-22T16:57:56.423Z,18.60
2017-09-22T17:00:24.025Z,18.60
2017-09-22T17:02:52.402Z,18.40
2017-09-22T17:05:20.753Z,18.30
2017-09-22T17:07:48.313Z,18.30
2017-09-22T17:10:15.925Z,18.20
2017-09-22T17:12:43.522Z,18.10
2017-09-22T17:15:11.125Z,18.00
2017-09-22T17:17:39.482Z,17.80
2017-09-22T17:20:07.074Z,17.80
2017-09-22T17:22:34.869Z,17.80
2017-09-22T17:25:02.473Z,17.80
2017-09-22T17:27:30.070Z,17.70
2017-09-22T17:29:57.839Z,17.70
2017-09-22T17:32:30.969Z,17.50
2017-09-22T17:34:58.656Z,17.50
2017-09-22T17:37:26.214Z,17.40
2017-09-22T17:39:53.833Z,17.40
2017-09-22T17:42:21.442Z,17.40
2017-09-22T17:44:51.131Z,17.40
2017-09-22T17:47:22.458Z,17.40
2017-09-22T17:49:50.096Z,17.30
2017-09-22T17:52:17.692Z,17.30
2017-09-22T17:54:45.283Z,17.20
2017-09-22T17:57:12.869Z,17.20
2017-09-22T17:59:41.229Z,17.20
2017-09-22T18:02:13.567Z,17.20
2017-09-22T18:04:41.968Z,17.10
2017-09-22T18:07:09.539Z,17.10
2017-09-22T18:09:37.152Z,17.10
2017-09-22T18:12:04.762Z,17.10
2017-09-22T18:14:32.369Z,17.10
2017-09-22T18:16:59.992Z,17.00
2017-09-22T18:19:28.404Z,16.90
2017-09-22T18:21:56.291Z,16.90
2017-09-22T18:24:23.886Z,16.90
2017-09-22T18:26:51.470Z,16.90
2017-09-22T18:29:19.835Z,16.70
2017-09-22T18:31:47.458Z,16.70
2017-09-22T18:34:15.213Z,16.70
2017-09-22T18:36:42.785Z,16.60
2017-09-22T18:39:10.685Z,16.50
2017-09-22T18:41:39.527Z,16.30
2017-09-22T18:44:07.126Z,16.30
2017-09-22T18:46:34.836Z,16.10
2017-09-22T18:49:03.185Z,15.80
2017-09-22T18:51:30.814Z,15.80
2017-09-22T18:53:58.410Z,15.70
2017-09-22T18:56:26.001Z,15.60
2017-09-22T18:58:53.617Z,15.60
2017-09-22T19:01:21.224Z,15.60
2017-09-22T19:03:49.138Z,15.50
2017-09-22T19:06:16.706Z,15.40
2017-09-22T19:08:44.468Z,15.40
2017-09-22T19:11:12.053Z,15.40
2017-09-22T19:13:39.856Z,15.40
2017-09-22T19:16:07.445Z,15.40
2017-09-22T19:18:35.236Z,15.50
2017-09-22T19:21:03.062Z,15.40
2017-09-22T19:23:30.628Z,15.40
2017-09-22T19:25:58.268Z,15.40
2017-09-22T19:28:25.842Z,15.50
2017-09-22T19:30:53.467Z,15.40
2017-09-22T19:33:21.816Z,15.30
2017-09-22T19:35:49.488Z,15.30
2017-09-22T19:38:17.075Z,15.30
2017-09-22T19:40:45.410Z,15.30
2017-09-22T19:43:13.277Z,15.20
2017-09-22T19:45:40.845Z,15.20
2017-09-22T19:48:08.450Z,15.20
2017-09-22T19:50:36.882Z,15.20
2017-09-22T19:53:04.487Z,15.20
2017-09-22T19:55:32.852Z,15.10
2017-09-22T19:58:00.467Z,15.10
2017-09-22T20:00:28.925Z,15.00
2017-09-22T20:02:56.506Z,15.00
2017-09-22T20:05:24.105Z,15.00
2017-09-22T20:07:51.715Z,15.00
2017-09-22T20:10:19.287Z,15.00
2017-09-22T20:12:46.887Z,15.00
2017-09-22T20:15:14.485Z,15.00
2017-09-22T20:17:42.111Z,15.00
2017-09-22T20:20:09.714Z,15.00
2017-09-22T20:22:38.055Z,15.00
2017-09-22T20:25:05.677Z,15.00
2017-09-22T20:27:34.033Z,15.00
2017-09-22T20:30:02.335Z,15.00
2017-09-22T20:32:30.704Z,15.00
2017-09-22T20:34:59.062Z,14.90
2017-09-22T20:37:27.439Z,14.90
2017-09-22T20:39:55.816Z,14.90
2017-09-22T20:42:24.171Z,14.90
2017-09-22T20:44:51.762Z,14.90
2017-09-22T20:47:20.142Z,14.90
2017-09-22T20:49:47.719Z,14.90
2017-09-22T20:52:15.342Z,14.90
2017-09-22T20:54:42.945Z,14.90
2017-09-22T20:57:10.521Z,14.90
2017-09-22T20:59:38.182Z,14.90
2017-09-22T21:02:05.771Z,14.90
2017-09-22T21:04:33.397Z,14.90
2017-09-22T21:07:01.012Z,15.00
2017-09-22T21:09:28.785Z,14.90
2017-09-22T21:11:57.266Z,15.00
2017-09-22T21:14:25.598Z,14.90
2017-09-22T21:16:53.178Z,14.90
2017-09-22T21:19:20.796Z,14.90
2017-09-22T21:21:48.372Z,14.90
2017-09-22T21:24:15.979Z,14.90
2017-09-22T21:26:43.738Z,14.90
2017-09-22T21:29:11.318Z,14.90
2017-09-22T21:31:39.675Z,14.90
2017-09-22T21:34:07.370Z,14.90
2017-09-22T21:36:35.758Z,14.90
2017-09-22T21:39:03.321Z,14.90
2017-09-22T21:41:30.916Z,14.90
2017-09-22T21:43:58.499Z,15.00
2017-09-22T21:46:26.097Z,15.00
2017-09-22T21:48:54.447Z,15.10
2017-09-22T21:51:22.043Z,15.00
2017-09-22T21:53:49.645Z,15.10
2017-09-22T21:56:17.242Z,15.10
2017-09-22T21:58:45.586Z,15.10
2017-09-22T22:01:13.174Z,15.10
2017-09-22T22:03:46.268Z,15.10
2017-09-22T22:06:19.498Z,15.10
2017-09-22T22:08:52.803Z,15.10
2017-09-22T22:11:20.367Z,15.20
2017-09-22T22:13:47.969Z,15.20
2017-09-22T22:16:15.590Z,15.20
2017-09-22T22:18:43.176Z,15.30
2017-09-22T22:21:10.964Z,15.30
2017-09-22T22:23:38.535Z,15.30
2017-09-22T22:26:06.902Z,15.30
2017-09-22T22:28:34.456Z,15.20
2017-09-22T22:31:02.031Z,15.30
2017-09-22T22:33:29.635Z,15.30
2017-09-22T22:35:57.228Z,15.30
2017-09-22T22:38:25.064Z,15.20
2017-09-22T22:40:52.642Z,15.20
2017-09-22T22:43:20.269Z,15.10
2017-09-22T22:45:48.622Z,15.00
2017-09-22T22:48:16.999Z,15.00
2017-09-22T22:50:44.624Z,15.00
2017-09-22T22:53:12.225Z,14.90
2017-09-22T22:55:39.824Z,14.90
2017-09-22T22:58:07.414Z,14.90
2017-09-22T23:00:35.031Z,14.80
2017-09-22T23:03:02.643Z,14.80
2017-09-22T23:05:30.246Z,14.80
2017-09-22T23:07:58.636Z,14.80
2017-09-22T23:10:27.010Z,14.80
2017-09-22T23:12:55.390Z,14.70
2017-09-22T23:15:23.742Z,14.80
2017-09-22T23:17:51.374Z,14.70
2017-09-22T23:20:19.095Z,14.70
2017-09-22T23:22:47.451Z,14.70
2017-09-22T23:25:15.045Z,14.70
2017-09-22T23:27:43.422Z,14.70
2017-09-22T23:30:11.147Z,14.70
2017-09-22T23:32:38.717Z,14.70
2017-09-22T23:35:06.337Z,14.70
2017-09-22T23:37:34.272Z,14.70
2017-09-22T23:40:02.632Z,14.70
2017-09-22T23:42:30.433Z,14.70
2017-09-22T23:44:58.018Z,14.70
2017-09-22T23:47:25.615Z,14.80
2017-09-22T23:49:53.219Z,14.80
2017-09-22T23:52:20.873Z,14.90
2017-09-22T23:54:49.222Z,14.90
2017-09-22T23:57:16.847Z,14.90
2017-09-22T23:59:44.422Z,14.90
